Latest Weather Observations for Carnarvon

IDW60801

Issued at 1:33 pm WST Tuesday 28 June 2016 (issued every 30 minutes, with the page automatically refreshed every 10 minutes)

About weather observations | Map of weather stations | Latest weather observations for WA | Other Formats
Station Details ID: 006011 Name: CARNARVON AIRPORT Lat: -24.89 Lon: 113.67 Height: 4.0 m
Data from the previous 72 hours. | See also: Recent months at Carnarvon
Date/Time
WST
Temp
°C
App
Temp
°C
Dew
Point
°C
Rel
Hum
%
Delta-T
°C
Wind Press
QNH
hPa
Press
MSL
hPa
Rain since
9am
mm
Dir  Spd
km/h
Gust
km/h
Spd
kts
Gust
kts
28/01:30pm 23.3 19.7 10.4 44 7.1 NW 20 28 11 15 1016.2 - 0.0
28/01:00pm 23.0 19.9 10.2 44 7.0 N 17 24 9 13 1016.5 - 0.0
28/12:30pm 22.9 19.0 9.3 42 7.3 N 20 24 11 13 1016.9 - 0.0
28/12:00pm 24.0 20.2 8.9 38 8.1 N 19 28 10 15 1017.1 1017.1 0.0
28/11:30am 22.9 19.3 10.5 45 6.8 N 20 22 11 12 1017.4 - 0.0
28/11:00am 22.4 20.5 13.0 55 5.4 N 15 20 8 11 1017.7 - 0.0
28/10:30am 20.7 18.8 12.9 61 4.4 N 15 19 8 10 1018.0 - 0.0
28/10:00am 20.5 18.1 12.7 61 4.4 N 17 22 9 12 1018.0 - 0.0
28/09:30am 18.3 16.6 12.3 68 3.3 NNE 13 17 7 9 1018.0 - 0.0
28/09:00am 16.8 15.4 12.2 74 2.5 NE 11 15 6 8 1017.9 1017.9 0.0
28/08:30am 15.7 14.7 12.2 80 1.9 ENE 9 11 5 6 1017.5 - 0.0
28/08:00am 14.7 14.2 12.1 84 1.4 ENE 6 7 3 4 1017.2 - 0.0
28/07:30am 14.1 13.2 11.3 83 1.5 ENE 7 9 4 5 1016.8 - 0.0
28/07:00am 13.8 12.8 10.9 83 1.5 ENE 7 7 4 4 1016.6 - 0.0
28/06:30am 13.1 11.6 10.6 85 1.3 ENE 9 11 5 6 1016.4 - 0.0
28/06:00am 12.3 10.9 9.7 84 1.3 NE 7 9 4 5 1016.1 1016.1 0.0
28/05:30am 12.2 10.4 9.6 84 1.3 NNE 9 11 5 6 1015.9 - 0.0
28/05:00am 13.1 11.0 9.8 80 1.7 NNE 11 13 6 7 1015.8 - 0.0
28/04:30am 12.5 9.9 9.3 81 1.6 NE 13 15 7 8 1015.8 - 0.0
28/04:00am 12.4 10.3 9.6 83 1.4 NE 11 13 6 7 1015.8 - 0.0
28/03:30am 12.4 10.5 9.2 81 1.6 ENE 9 13 5 7 1015.8 - 0.0
28/03:00am 12.7 11.2 9.3 80 1.7 NE 7 9 4 5 1016.0 1016.0 0.0
28/02:30am 13.1 11.3 9.6 79 1.8 NE 9 9 5 5 1016.0 - 0.0
28/02:00am 12.8 10.5 9.0 78 1.9 ENE 11 13 6 7 1016.0 - 0.0
28/01:30am 13.5 11.3 9.2 75 2.2 NE 11 13 6 7 1015.9 - 0.0
28/01:00am 13.5 11.6 8.9 74 2.3 NE 9 9 5 5 1015.8 - 0.0
28/12:30am 13.0 11.4 8.8 75 2.1 ENE 7 9 4 5 1015.9 - 0.0
28/12:00am 13.1 11.2 9.1 77 2.0 ENE 9 11 5 6 1016.1 1016.1 0.0
 
Date/Time
WST
Temp
°C
App
Temp
°C
Dew
Point
°C
Rel
Hum
%
Delta-T
°C
Wind Press
QNH
hPa
Press
MSL
hPa
Rain since
9am
mm
Dir  Spd
km/h
Gust
km/h
Spd
kts
Gust
kts
27/11:30pm 13.4 11.5 9.0 75 2.2 ENE 9 11 5 6 1016.4 - 0.0
27/11:00pm 13.8 10.8 9.1 73 2.4 ENE 15 15 8 8 1016.5 - 0.0
27/10:30pm 13.8 11.1 9.1 73 2.4 ENE 13 13 7 7 1016.6 - 0.0
27/10:00pm 14.5 12.3 9.2 70 2.7 NE 11 13 6 7 1016.7 - 0.0
27/09:30pm 14.9 12.2 8.8 67 3.1 SE 13 15 7 8 1016.5 - 0.0
27/09:00pm 16.1 14.4 9.8 66 3.3 E 9 9 5 5 1016.8 1016.8 0.0
27/08:30pm 16.9 15.2 9.8 63 3.7 ENE 9 11 5 6 1016.8 - 0.0
27/08:00pm 17.6 15.8 9.4 58 4.3 ESE 9 9 5 5 1016.7 - 0.0
27/07:30pm 17.9 16.5 9.7 58 4.3 SSE 7 7 4 4 1016.6 - 0.0
27/07:00pm 18.5 16.6 9.1 54 4.9 SSE 9 9 5 5 1016.5 - 0.0
27/06:30pm 18.8 16.9 9.0 53 5.1 S 9 11 5 6 1016.4 - 0.0
27/06:00pm 19.0 17.0 10.2 56 4.7 S 11 13 6 7 1016.0 1016.0 0.0
27/05:30pm 19.3 17.6 11.2 59 4.4 S 11 15 6 8 1015.7 - 0.0
27/05:00pm 20.7 19.2 9.0 47 6.2 WSW 7 9 4 5 1015.6 - 0.0
27/04:30pm 21.4 18.6 8.4 43 6.8 W 13 19 7 10 1015.6 - 0.0
27/04:00pm 21.0 17.8 8.6 45 6.5 W 15 20 8 11 1015.6 - 0.0
27/03:30pm 22.4 18.5 7.3 37 7.8 W 17 24 9 13 1015.5 - 0.0
27/03:00pm 21.8 18.0 5.8 35 8.0 WNW 15 20 8 11 1015.5 1015.5 0.0
27/02:30pm 21.8 17.5 5.3 34 8.2 WNW 17 22 9 12 1015.7 - 0.0
27/02:00pm 21.9 17.2 5.1 33 8.3 WNW 19 24 10 13 1015.7 - 0.0
27/01:30pm 22.7 17.9 5.5 32 8.6 NW 20 28 11 15 1016.0 - 0.0
27/01:00pm 22.6 18.1 4.2 30 9.0 NNW 17 26 9 14 1016.4 - 0.0
27/12:30pm 21.8 16.9 4.0 31 8.6 NNW 19 32 10 17 1016.8 - 0.0
27/12:00pm 21.8 16.7 4.3 32 8.5 NNW 20 26 11 14 1017.1 1017.1 0.0
27/11:30am 20.9 14.9 5.3 36 7.7 N 26 33 14 18 1017.5 - 0.0
27/11:00am 20.0 14.4 5.6 39 7.1 NNE 24 32 13 17 1018.1 - 0.0
27/10:30am 18.6 13.6 6.5 45 6.0 NNE 22 28 12 15 1018.7 - 0.0
27/10:00am 17.8 13.2 6.7 48 5.5 NNE 20 24 11 13 1019.0 - 0.0
27/09:30am 16.4 13.0 7.6 56 4.4 NE 15 20 8 11 1019.0 - 0.0
27/09:00am 14.4 11.4 7.7 64 3.3 ENE 13 17 7 9 1019.0 1019.0 0.0
27/08:30am 12.3 9.3 7.6 73 2.3 E 13 17 7 9 1019.0 - 0.0
27/08:00am 9.9 7.7 8.0 88 0.9 ESE 9 11 5 6 1019.0 - 0.0
27/07:30am 7.6 4.9 5.8 88 0.8 ESE 9 13 5 7 1018.7 - 0.0
27/07:00am 7.7 4.2 5.5 86 1.0 E 13 17 7 9 1018.2 - 0.0
27/06:30am 8.1 5.9 6.1 87 0.9 E 7 9 4 5 1018.0 - 0.0
27/06:00am 7.8 4.4 5.8 87 0.9 E 13 15 7 8 1017.8 1017.8 0.0
27/05:30am 8.1 5.1 6.1 87 0.9 E 11 13 6 7 1017.9 - 0.0
27/05:00am 7.9 4.8 5.7 86 1.0 E 11 13 6 7 1017.7 - 0.0
27/04:30am 8.5 6.2 5.9 84 1.2 ESE 7 11 4 6 1017.9 - 0.0
27/04:00am 8.7 6.1 6.1 84 1.2 ESE 9 11 5 6 1018.0 - 0.0
27/03:30am 8.4 5.8 6.2 86 1.0 ESE 9 11 5 6 1017.8 - 0.0
27/03:00am 8.8 5.8 5.9 82 1.3 ESE 11 13 6 7 1017.9 1017.9 0.0
27/02:30am 9.3 6.8 6.5 83 1.3 ESE 9 11 5 6 1018.3 - 0.0
27/02:00am 9.4 7.0 6.8 84 1.2 ESE 9 11 5 6 1018.7 - 0.0
27/01:30am 9.3 6.6 7.2 87 1.0 ESE 11 13 6 7 1018.8 - 0.0
27/01:00am 9.4 7.1 7.5 88 0.9 E 9 13 5 7 1018.9 - 0.0
27/12:30am 9.5 7.3 7.8 89 0.8 ESE 9 13 5 7 1019.2 - 0.0
27/12:00am 10.6 8.4 9.2 91 0.7 ESE 11 15 6 8 1019.6 1019.6 0.0
 
Date/Time
WST
Temp
°C
App
Temp
°C
Dew
Point
°C
Rel
Hum
%
Delta-T
°C
Wind Press
QNH
hPa
Press
MSL
hPa
Rain since
9am
mm
Dir  Spd
km/h
Gust
km/h
Spd
kts
Gust
kts
26/11:30pm 10.5 9.0 9.3 92 0.6 SE 7 9 4 5 1019.8 - 0.0
26/11:00pm 11.0 9.2 9.4 90 0.8 SE 9 9 5 5 1020.0 - 0.0
26/10:30pm 11.5 9.6 9.1 85 1.2 SSE 9 11 5 6 1020.2 - 0.0
26/10:00pm 12.0 9.8 9.4 84 1.3 SE 11 13 6 7 1020.3 - 0.0
26/09:30pm 13.1 11.5 10.2 82 1.5 SE 9 15 5 8 1020.4 - 0.0
26/09:00pm 12.8 10.8 10.1 84 1.4 SSE 11 13 6 7 1020.3 1020.3 0.0
26/08:30pm 13.7 11.4 10.4 80 1.7 SSE 13 17 7 9 1020.2 - 0.0
26/08:00pm 14.0 12.0 10.3 78 1.9 SSE 11 13 6 7 1020.0 - 0.0
26/07:30pm 14.7 12.4 10.5 76 2.2 S 13 15 7 8 1019.7 - 0.0
26/07:00pm 15.8 13.1 10.5 71 2.8 S 15 19 8 10 1019.5 - 0.0
26/06:30pm 16.4 13.4 10.8 69 3.0 S 17 20 9 11 1019.4 - 0.0
26/06:00pm 17.2 13.6 10.4 64 3.6 S 20 28 11 15 1019.3 1019.3 0.0
26/05:30pm 18.1 13.6 10.2 60 4.2 S 24 30 13 16 1019.2 - 0.0
26/05:00pm 18.7 14.1 11.1 61 4.1 S 26 33 14 18 1019.1 - 0.0
26/04:30pm 18.9 14.3 12.2 65 3.7 S 28 33 15 18 1019.0 - 0.0
26/04:00pm 19.4 15.5 12.0 62 4.1 S 24 35 13 19 1019.1 - 0.0
26/03:30pm 19.8 17.0 11.2 57 4.7 S 17 22 9 12 1019.6 - 0.0
26/03:00pm 22.6 17.7 2.1 26 9.6 E 17 26 9 14 1019.4 1019.4 0.0
26/02:30pm 22.3 17.3 1.5 25 9.6 E 17 26 9 14 1019.6 - 0.0
26/02:00pm 22.2 16.7 1.7 26 9.5 ESE 20 32 11 17 1019.8 - 0.0
26/01:30pm 22.1 17.0 2.9 28 9.1 ESE 19 28 10 15 1020.3 - 0.0
26/01:00pm 21.5 15.5 1.1 26 9.3 ESE 22 26 12 14 1020.9 - 0.0
26/12:30pm 21.5 16.8 5.3 34 8.0 ESE 19 22 10 12 1021.7 - 0.0
26/12:00pm 20.6 16.1 5.9 38 7.3 ESE 19 26 10 14 1022.4 1022.4 0.0
26/11:30am 20.2 15.7 6.9 42 6.7 ESE 20 26 11 14 1022.9 - 0.0
26/11:00am 19.6 14.9 7.6 45 6.1 ESE 22 28 12 15 1023.2 - 0.0
26/10:30am 18.3 13.9 7.6 49 5.4 ESE 20 28 11 15 1023.5 - 0.0
26/10:00am 17.5 12.5 8.0 53 4.8 ESE 24 30 13 16 1023.6 - 0.0
26/09:30am 16.5 11.9 8.2 58 4.2 ESE 22 30 12 16 1023.7 - 0.0
26/09:00am 15.1 11.3 9.0 67 3.1 SE 19 28 10 15 1023.4 1023.4 0.0
26/08:30am 13.3 10.9 10.2 81 1.6 SE 13 17 7 9 1023.1 - 0.0
26/08:00am 10.7 8.9 9.5 92 0.6 SE 9 11 5 6 1023.0 - 0.0
26/07:30am 8.9 6.9 8.5 97 0.2 SE 9 11 5 6 1022.6 - 0.0
26/07:00am 8.8 6.3 8.0 95 0.4 SE 11 11 6 6 1022.2 - 0.0
26/06:30am 9.3 6.8 8.3 93 0.5 SE 11 11 6 6 1022.1 - 0.0
26/06:00am 9.4 7.8 8.6 95 0.4 SE 7 9 4 5 1021.8 1021.8 0.0
26/05:30am 9.5 7.4 8.3 92 0.6 SSE 9 13 5 7 1021.3 - 0.0
26/05:00am 9.9 7.1 8.7 92 0.6 SSE 13 15 7 8 1020.9 - 0.0
26/04:30am 10.0 7.3 8.8 92 0.6 SSE 13 15 7 8 1021.0 - 0.0
26/04:00am 10.4 7.7 8.8 90 0.8 SSE 13 15 7 8 1021.1 - 0.0
26/03:30am 10.9 7.9 9.3 90 0.8 SSE 15 17 8 9 1021.3 - 0.0
26/03:00am 10.6 7.9 9.0 90 0.8 SSE 13 15 7 8 1021.2 1021.2 0.0
26/02:30am 10.8 8.8 8.8 87 1.0 SSE 9 11 5 6 1021.2 - 0.0
26/02:00am 11.7 9.1 9.3 85 1.2 SSE 13 15 7 8 1021.0 - 0.0
26/01:30am 12.5 10.4 9.7 83 1.4 SE 11 15 6 8 1021.0 - 0.0
26/01:00am 13.1 11.1 10.0 81 1.6 SE 11 15 6 8 1021.0 - 0.0
26/12:30am 13.7 11.0 10.2 79 1.8 SSE 15 17 8 9 1021.0 - 0.0
26/12:00am 14.4 11.7 10.4 77 2.1 SE 15 17 8 9 1021.0 1021.0 0.0
 
Date/Time
WST
Temp
°C
App
Temp
°C
Dew
Point
°C
Rel
Hum
%
Delta-T
°C
Wind Press
QNH
hPa
Press
MSL
hPa
Rain since
9am
mm
Dir  Spd
km/h
Gust
km/h
Spd
kts
Gust
kts
25/11:30pm 15.1 12.1 10.5 74 2.4 SSE 17 20 9 11 1021.3 - 0.0
25/11:00pm 15.6 12.2 11.1 74 2.4 SSE 20 24 11 13 1021.1 - 0.0
25/10:30pm 16.0 12.6 11.3 73 2.5 SSE 20 24 11 13 1021.1 - 0.0
25/10:00pm 16.5 13.0 12.1 75 2.4 SSE 22 28 12 15 1021.1 - 0.0
25/09:30pm 16.8 13.4 12.4 75 2.4 SSE 22 28 12 15 1021.1 - 0.0
25/09:00pm 16.2 14.2 12.6 79 2.0 S 15 19 8 10 1021.2 1021.2 0.0
25/08:30pm 16.5 14.1 12.5 77 2.2 S 17 20 9 11 1020.9 - 0.0
25/08:00pm 16.7 14.3 12.7 77 2.2 S 17 20 9 11 1020.7 - 0.0
25/07:30pm 16.7 14.0 11.7 72 2.7 S 17 20 9 11 1020.4 - 0.0
25/07:00pm 17.2 14.0 10.0 62 3.8 S 17 22 9 12 1020.0 - 0.0
25/06:30pm 17.3 13.3 9.2 59 4.2 SSE 20 24 11 13 1019.5 - 0.0
25/06:00pm 18.0 13.7 8.0 52 5.1 S 20 24 11 13 1019.5 1019.5 0.0
25/05:30pm 19.2 14.4 7.3 46 6.0 SSE 22 28 12 15 1019.8 - 0.0
25/05:00pm 20.1 14.8 6.8 42 6.7 S 24 33 13 18 1019.5 - 0.0
25/04:30pm 20.5 14.4 6.6 40 7.0 SSE 28 39 15 21 1019.0 - 0.0
25/04:00pm 20.6 13.6 6.7 40 7.0 S 33 43 18 23 1018.7 - 0.0
25/03:30pm 20.8 14.0 7.0 40 7.0 S 32 41 17 22 1018.7 - 0.0
25/03:00pm 21.2 14.4 6.8 39 7.3 S 32 39 17 21 1018.6 1018.6 0.0
25/02:30pm 20.6 13.5 6.2 39 7.2 S 33 43 18 23 1018.6 - 0.0
25/02:00pm 19.4 14.7 9.3 52 5.3 SSW 24 32 13 17 1018.8 - 0.0

Other Formats:

Comma delimited format used in spreadsheet applications
http://www.bom.gov.au/fwo/IDW60801/IDW60801.94300.axf

JavaScript Object Notation format (JSON) in row-major order
http://www.bom.gov.au/fwo/IDW60801/IDW60801.94300.json